createdAt,value
2019-05-16T00:01:04.226Z,97218.85
2019-05-16T00:06:10.042Z,97209.81
2019-05-16T00:11:15.108Z,97203.67
2019-05-16T00:16:20.258Z,97193.79
2019-05-16T00:21:25.710Z,97191.14
2019-05-16T00:26:31.461Z,97190.03
2019-05-16T00:31:38.198Z,97178.13
2019-05-16T00:36:43.465Z,97172.41
2019-05-16T00:41:48.910Z,97166.88
2019-05-16T00:46:54.392Z,97159.26
2019-05-16T00:51:59.483Z,97158.78
2019-05-16T00:57:08.472Z,97155.08
2019-05-16T01:02:13.512Z,97148.74
2019-05-16T01:07:18.947Z,97135.42
2019-05-16T01:12:24.405Z,97128.55
2019-05-16T01:17:29.409Z,97121.58
2019-05-16T01:22:35.127Z,97111.58
2019-05-16T01:27:40.193Z,97112.37
2019-05-16T01:32:45.651Z,97102.49
2019-05-16T01:37:50.741Z,97096.25
2019-05-16T01:42:57.843Z,97090.37
2019-05-16T01:48:03.336Z,97084.73
2019-05-16T01:53:08.809Z,97082.85
2019-05-16T01:58:13.965Z,97078.59
2019-05-16T02:03:19.239Z,97079.27
2019-05-16T02:08:24.323Z,97072.37
2019-05-16T02:13:29.325Z,97062.02
2019-05-16T02:18:34.471Z,97061.86
2019-05-16T02:23:39.833Z,97058.79
2019-05-16T02:28:45.066Z,97056.52
2019-05-16T02:33:53.666Z,97050.96
2019-05-16T02:39:01.846Z,97040.61
2019-05-16T02:44:05.953Z,97032.09
2019-05-16T02:49:11.879Z,97035.11
2019-05-16T02:54:21.500Z,97026.82
2019-05-16T02:59:24.818Z,97023.88
2019-05-16T03:04:30.823Z,97018.09
2019-05-16T03:09:36.253Z,97014.78
2019-05-16T03:14:42.842Z,97012.40
2019-05-16T03:19:51.145Z,97000.63
2019-05-16T03:24:56.569Z,96990.25
2019-05-16T03:30:02.515Z,96983.75
2019-05-16T03:35:14.525Z,96990.70
2019-05-16T03:40:17.837Z,96990.06
2019-05-16T03:45:23.078Z,96987.91
2019-05-16T03:50:30.664Z,96977.13
2019-05-16T03:55:35.473Z,96972.50
2019-05-16T04:00:52.320Z,96974.48
2019-05-16T04:05:57.317Z,96972.35
2019-05-16T04:11:03.557Z,96977.34
2019-05-16T04:16:11.826Z,96972.09
2019-05-16T04:21:17.862Z,96969.56
2019-05-16T04:26:23.569Z,96966.36
2019-05-16T04:31:30.808Z,96957.67
2019-05-16T04:36:35.610Z,96961.61
2019-05-16T04:41:41.148Z,96959.70
2019-05-16T04:46:46.631Z,96959.41
2019-05-16T04:51:52.110Z,96961.16
2019-05-16T04:57:01.241Z,96953.88
2019-05-16T05:02:04.252Z,96947.31
2019-05-16T05:07:11.165Z,96945.12
2019-05-16T05:12:16.110Z,96944.65
2019-05-16T05:17:21.856Z,96945.56
2019-05-16T05:22:27.090Z,96951.55
2019-05-16T05:27:32.676Z,96939.15
2019-05-16T05:32:38.340Z,96937.62
2019-05-16T05:37:43.679Z,96936.53
2019-05-16T05:42:50.492Z,96938.69
2019-05-16T05:47:56.158Z,96926.73
2019-05-16T05:53:01.828Z,96929.63
2019-05-16T05:58:06.930Z,96932.16
2019-05-16T06:03:12.342Z,96930.55
2019-05-16T06:08:19.933Z,96930.51
2019-05-16T06:13:25.410Z,96932.13
2019-05-16T06:18:30.755Z,96929.30
2019-05-16T06:23:36.218Z,96924.25
2019-05-16T06:28:41.965Z,96923.91
2019-05-16T06:33:50.043Z,96924.11
2019-05-16T06:38:54.474Z,96916.56
2019-05-16T06:44:00.074Z,96924.41
2019-05-16T06:49:05.213Z,96916.44
2019-05-16T06:54:10.631Z,96920.79
2019-05-16T06:59:16.091Z,96918.06
2019-05-16T07:04:21.669Z,96916.99
2019-05-16T07:09:27.302Z,96915.19
2019-05-16T07:14:33.014Z,96910.22
2019-05-16T07:19:40.629Z,96906.30
2019-05-16T07:24:45.875Z,96902.55
2019-05-16T07:29:51.170Z,96905.68
2019-05-16T07:34:56.233Z,96904.33
2019-05-16T07:40:16.137Z,96900.54
2019-05-16T07:45:11.366Z,96888.30
2019-05-16T07:50:16.913Z,96885.74
2019-05-16T07:55:22.203Z,96874.59
2019-05-16T08:00:45.752Z,96865.73
2019-05-16T08:05:34.766Z,96875.03
2019-05-16T08:10:45.526Z,96871.46
2019-05-16T08:15:47.010Z,96871.76
2019-05-16T08:20:52.865Z,96874.15
2019-05-16T08:26:00.897Z,96871.12
2019-05-16T08:31:05.555Z,96864.74
2019-05-16T08:36:12.014Z,96855.84
2019-05-16T08:41:21.926Z,96857.78
2019-05-16T08:46:24.909Z,96856.81
2019-05-16T08:51:33.189Z,96851.70
2019-05-16T08:56:43.760Z,96845.80
2019-05-16T09:01:52.016Z,96844.16
2019-05-16T09:06:52.665Z,96839.33
2019-05-16T09:11:57.878Z,96838.08
2019-05-16T09:17:03.296Z,96822.81
2019-05-16T09:22:08.490Z,96820.23
2019-05-16T09:27:13.805Z,96818.59
2019-05-16T09:32:22.042Z,96819.75
2019-05-16T09:37:26.805Z,96805.86
2019-05-16T09:42:32.059Z,96805.06
2019-05-16T09:47:38.943Z,96793.02
2019-05-16T09:52:44.143Z,96801.09
2019-05-16T09:57:49.278Z,96797.81
2019-05-16T10:02:54.695Z,96795.84
2019-05-16T10:07:59.926Z,96791.84
2019-05-16T10:13:06.807Z,96776.03
2019-05-16T10:18:12.523Z,96779.92
2019-05-16T10:23:18.185Z,96778.63
2019-05-16T10:28:27.073Z,96771.24
2019-05-16T10:33:31.367Z,96776.27
2019-05-16T10:38:37.431Z,96775.44
2019-05-16T10:43:43.322Z,96770.20
2019-05-16T10:48:48.724Z,96770.06
2019-05-16T10:54:09.490Z,96766.90
2019-05-16T10:59:45.895Z,96760.67
2019-05-16T11:04:08.831Z,96758.21
2019-05-16T11:09:14.155Z,96754.07
2019-05-16T11:14:19.769Z,96754.41
2019-05-16T11:19:28.077Z,96744.05
2019-05-16T11:24:31.992Z,96747.23
2019-05-16T11:29:37.715Z,96750.55
2019-05-16T11:34:42.798Z,96750.62
2019-05-16T11:39:48.795Z,96747.89
2019-05-16T11:44:53.949Z,96742.28
2019-05-16T11:49:59.412Z,96744.69
2019-05-16T11:55:07.404Z,96744.86
2019-05-16T12:00:17.465Z,96733.58
2019-05-16T12:05:21.157Z,96722.83
2019-05-16T12:10:27.123Z,96713.89
2019-05-16T12:15:32.653Z,96711.44
2019-05-16T12:20:38.575Z,96706.16
2019-05-16T12:25:43.612Z,96699.06
2019-05-16T12:30:48.799Z,96702.92
2019-05-16T12:35:54.403Z,96703.37
2019-05-16T12:40:59.829Z,96701.33
2019-05-16T12:46:07.196Z,96704.35
2019-05-16T12:51:11.998Z,96685.86
2019-05-16T12:56:17.690Z,96693.42
2019-05-16T13:01:30.670Z,96701.14
2019-05-16T13:06:31.062Z,96691.09
2019-05-16T13:11:37.758Z,96682.42
2019-05-16T13:16:43.948Z,96675.23
2019-05-16T13:21:49.106Z,96677.84
2019-05-16T13:26:57.086Z,96669.09
2019-05-16T13:32:02.556Z,96670.86
2019-05-16T13:37:08.234Z,96662.22
2019-05-16T13:42:13.423Z,96655.91
2019-05-16T13:47:19.051Z,96648.69
2019-05-16T13:52:28.002Z,96646.87
2019-05-16T13:57:31.636Z,96638.02
2019-05-16T14:02:37.789Z,96627.13
2019-05-16T14:07:43.487Z,96625.45
2019-05-16T14:12:50.351Z,96618.44
2019-05-16T14:17:56.829Z,96618.43
2019-05-16T14:23:01.983Z,96612.77
2019-05-16T14:28:07.827Z,96611.42
2019-05-16T14:33:14.191Z,96607.41
2019-05-16T14:38:19.694Z,96596.64
2019-05-16T14:43:27.164Z,96602.68
2019-05-16T14:48:32.263Z,96603.08
2019-05-16T14:53:38.004Z,96601.55
2019-05-16T14:58:43.794Z,96601.56
2019-05-16T15:03:48.941Z,96604.04
2019-05-16T15:08:56.622Z,96602.34
2019-05-16T15:14:01.302Z,96599.71
2019-05-16T15:19:08.191Z,96599.02
2019-05-16T15:24:13.412Z,96603.73
2019-05-16T15:29:19.043Z,96608.97
2019-05-16T15:34:29.864Z,96596.94
2019-05-16T15:39:31.511Z,96607.73
2019-05-16T15:44:36.976Z,96604.14
2019-05-16T15:49:42.320Z,96606.64
2019-05-16T15:54:49.240Z,96601.13
2019-05-16T15:59:54.636Z,96598.21
2019-05-16T16:05:00.218Z,96605.22
2019-05-16T16:10:07.011Z,96599.47
2019-05-16T16:15:12.805Z,96595.73
2019-05-16T16:20:18.122Z,96596.68
2019-05-16T16:25:23.191Z,96594.17
2019-05-16T16:30:29.097Z,96589.84
2019-05-16T16:35:37.575Z,96590.24
2019-05-16T16:40:41.718Z,96585.61
2019-05-16T16:45:47.888Z,96583.77
2019-05-16T16:50:53.852Z,96587.41
2019-05-16T16:55:59.619Z,96584.95
2019-05-16T17:01:07.333Z,96581.39
2019-05-16T17:06:11.608Z,96581.94
2019-05-16T17:11:16.809Z,96587.20
2019-05-16T17:16:26.121Z,96591.91
2019-05-16T17:21:29.985Z,96594.19
2019-05-16T17:26:37.652Z,96597.50
2019-05-16T17:31:41.877Z,96597.20
2019-05-16T17:36:47.247Z,96601.66
2019-05-16T17:41:54.908Z,96597.77
2019-05-16T17:46:59.193Z,96600.22
2019-05-16T17:52:06.787Z,96596.80
2019-05-16T17:57:11.471Z,96591.83
2019-05-16T18:02:17.294Z,96598.75
2019-05-16T18:07:22.480Z,96596.09
2019-05-16T18:12:27.704Z,96599.05
2019-05-16T18:17:32.919Z,96603.66
2019-05-16T18:22:38.497Z,96603.36
2019-05-16T18:27:43.572Z,96599.47
2019-05-16T18:32:49.218Z,96603.36
2019-05-16T18:37:56.876Z,96607.63
2019-05-16T18:43:01.610Z,96601.69
2019-05-16T18:48:07.698Z,96598.98
2019-05-16T18:53:13.173Z,96597.02
2019-05-16T18:58:18.240Z,96598.19
2019-05-16T19:03:23.720Z,96596.95
2019-05-16T19:08:29.283Z,96600.22
2019-05-16T19:13:36.905Z,96594.70
2019-05-16T19:18:42.328Z,96590.23
2019-05-16T19:23:47.686Z,96592.73
2019-05-16T19:28:53.172Z,96592.86
2019-05-16T19:33:58.403Z,96592.73
2019-05-16T19:39:06.249Z,96590.88
2019-05-16T19:44:12.008Z,96591.32
2019-05-16T19:49:17.373Z,96594.32
2019-05-16T19:54:22.860Z,96589.56
2019-05-16T19:59:28.911Z,96587.83
2019-05-16T20:04:36.474Z,96591.45
2019-05-16T20:09:41.672Z,96582.52
2019-05-16T20:14:47.382Z,96589.56
2019-05-16T20:19:53.522Z,96590.75
2019-05-16T20:24:58.880Z,96581.91
2019-05-16T20:30:06.677Z,96586.50
2019-05-16T20:35:11.931Z,96581.78
2019-05-16T20:40:17.400Z,96573.95
2019-05-16T20:45:22.895Z,96564.86
2019-05-16T20:50:28.344Z,96563.75
2019-05-16T20:55:33.435Z,96561.05
2019-05-16T21:00:39.149Z,96563.84
2019-05-16T21:05:47.653Z,96555.53
2019-05-16T21:10:51.153Z,96561.80
2019-05-16T21:15:57.680Z,96549.17
2019-05-16T21:21:02.971Z,96553.68
2019-05-16T21:26:08.708Z,96544.48
2019-05-16T21:31:16.386Z,96542.86
2019-05-16T21:36:21.608Z,96534.67
2019-05-16T21:41:27.440Z,96527.79
2019-05-16T21:46:32.635Z,96523.55
2019-05-16T21:51:37.770Z,96532.47
2019-05-16T21:56:43.468Z,96525.89
2019-05-16T22:01:49.149Z,96518.52
2019-05-16T22:06:56.612Z,96524.44
2019-05-16T22:12:02.048Z,96515.69
2019-05-16T22:17:07.554Z,96520.73
2019-05-16T22:22:13.075Z,96516.70
2019-05-16T22:27:18.999Z,96509.55
2019-05-16T22:32:27.051Z,96512.23
2019-05-16T22:37:31.614Z,96515.15
2019-05-16T22:42:37.581Z,96504.11
2019-05-16T22:47:43.041Z,96493.16
2019-05-16T22:52:49.306Z,96481.42
2019-05-16T22:57:56.440Z,96484.55
2019-05-16T23:03:01.766Z,96466.63
2019-05-16T23:08:09.972Z,96462.13
2019-05-16T23:13:16.999Z,96455.63
2019-05-16T23:18:22.103Z,96439.20
2019-05-16T23:23:27.383Z,96439.96
2019-05-16T23:28:32.465Z,96441.06
2019-05-16T23:33:38.228Z,96437.43
2019-05-16T23:38:43.386Z,96433.56
2019-05-16T23:43:48.732Z,96432.47
2019-05-16T23:48:56.417Z,96425.16
2019-05-16T23:54:01.240Z,96423.50
2019-05-16T23:59:06.802Z,96414.30
